TimeCST,TemperatureF,Dew PointF,Humidity,Sea Level PressureIn,VisibilityMPH,Wind Direction,Wind SpeedMPH,Gust SpeedMPH,PrecipitationIn,Events,Conditions,WindDirDegrees,DateUTC
12:15 AM,37.4,30.2,75,29.82,10.0,SW,11.5,-,N/A,,Clear,230,2013-01-19 06:15:00
12:35 AM,37.4,30.2,75,29.82,10.0,SW,12.7,17.3,N/A,,Clear,230,2013-01-19 06:35:00
12:55 AM,37.4,30.2,75,29.83,10.0,SW,9.2,-,N/A,,Clear,230,2013-01-19 06:55:00
1:15 AM,37.4,30.2,75,29.83,10.0,SW,10.4,-,N/A,,Clear,230,2013-01-19 07:15:00
1:35 AM,35.6,30.2,81,29.83,10.0,SW,9.2,-,N/A,,Clear,230,2013-01-19 07:35:00
1:55 AM,37.4,30.2,75,29.84,10.0,SW,9.2,-,N/A,,Clear,220,2013-01-19 07:55:00
2:15 AM,35.6,30.2,81,29.85,10.0,SW,10.4,-,N/A,,Clear,230,2013-01-19 08:15:00
2:35 AM,37.4,30.2,75,29.84,10.0,SW,10.4,-,N/A,,Clear,230,2013-01-19 08:35:00
2:55 AM,37.4,30.2,75,29.84,10.0,SW,11.5,-,N/A,,Clear,230,2013-01-19 08:55:00
3:15 AM,37.4,30.2,75,29.83,10.0,SW,11.5,-,N/A,,Scattered Clouds,230,2013-01-19 09:15:00
3:35 AM,37.4,30.2,75,29.83,10.0,SW,9.2,-,N/A,,Overcast,230,2013-01-19 09:35:00
3:55 AM,37.4,30.2,75,29.83,10.0,SW,12.7,17.3,N/A,,Overcast,230,2013-01-19 09:55:00
4:15 AM,37.4,32.0,81,29.83,10.0,WSW,13.8,-,N/A,,Overcast,240,2013-01-19 10:15:00
4:35 AM,37.4,30.2,75,29.83,10.0,WSW,13.8,-,N/A,,Overcast,240,2013-01-19 10:35:00
4:55 AM,37.4,32.0,81,29.83,10.0,WSW,11.5,-,N/A,,Overcast,240,2013-01-19 10:55:00
5:15 AM,37.4,32.0,81,29.81,10.0,WSW,11.5,-,N/A,,Mostly Cloudy,240,2013-01-19 11:15:00
5:35 AM,37.4,32.0,81,29.81,10.0,SW,9.2,-,N/A,,Clear,230,2013-01-19 11:35:00
5:55 AM,37.4,32.0,81,29.81,10.0,SW,9.2,-,N/A,,Scattered Clouds,230,2013-01-19 11:55:00
6:45 AM,37.4,30.2,75,29.82,10.0,SW,9.2,-,N/A,,Overcast,230,2013-01-19 12:45:00
7:50 AM,37.4,30.2,75,29.81,10.0,SSW,5.8,-,N/A,,Overcast,210,2013-01-19 13:50:00
8:50 AM,39.2,30.2,70,29.80,10.0,SSW,10.4,-,N/A,,Overcast,210,2013-01-19 14:50:00
9:45 AM,39.2,30.2,70,29.80,10.0,SSW,11.5,18.4,N/A,,Overcast,210,2013-01-19 15:45:00
10:45 AM,41.0,30.2,65,29.77,10.0,SW,11.5,23.0,N/A,,Overcast,230,2013-01-19 16:45:00
11:45 AM,41.0,30.2,65,29.70,10.0,West,11.5,18.4,N/A,,Overcast,280,2013-01-19 17:45:00
12:45 PM,42.8,30.2,61,29.67,10.0,SW,17.3,20.7,N/A,,Scattered Clouds,230,2013-01-19 18:45:00
1:45 PM,42.8,30.2,61,29.65,10.0,WSW,16.1,24.2,N/A,,Scattered Clouds,240,2013-01-19 19:45:00
2:45 PM,42.8,32.0,66,29.64,10.0,WSW,15.0,25.3,N/A,,Clear,250,2013-01-19 20:45:00
3:45 PM,42.8,32.0,66,29.65,10.0,WSW,16.1,21.9,N/A,,Mostly Cloudy,240,2013-01-19 21:45:00
4:45 PM,42.8,32.0,66,29.65,10.0,WSW,17.3,21.9,N/A,,Mostly Cloudy,240,2013-01-19 22:45:00
5:45 PM,42.8,30.2,61,29.65,10.0,WSW,13.8,26.5,N/A,,Scattered Clouds,240,2013-01-19 23:45:00
6:45 PM,42.8,30.2,61,29.65,10.0,WSW,15.0,25.3,N/A,,Clear,250,2013-01-20 00:45:00
7:45 PM,42.8,28.4,57,29.65,10.0,West,25.3,32.2,N/A,,Mostly Cloudy,270,2013-01-20 01:45:00
8:15 PM,37.4,19.4,48,29.65,10.0,West,21.9,34.5,N/A,,Scattered Clouds,270,2013-01-20 02:15:00
8:35 PM,37.4,15.8,41,29.65,10.0,West,24.2,36.8,N/A,,Clear,270,2013-01-20 02:35:00
8:45 PM,37.4,14.0,38,29.65,10.0,West,24.2,36.8,N/A,,Clear,270,2013-01-20 02:45:00
8:55 PM,35.6,14.0,41,29.66,10.0,West,28.8,40.3,N/A,,Clear,270,2013-01-20 02:55:00
9:15 PM,33.8,10.4,38,29.68,10.0,West,26.5,42.6,N/A,,Clear,280,2013-01-20 03:15:00
9:35 PM,32.0,10.4,41,29.72,10.0,West,33.4,49.5,N/A,,Clear,280,2013-01-20 03:35:00
9:55 PM,28.4,10.4,47,29.75,10.0,West,35.7,43.7,N/A,,Clear,280,2013-01-20 03:55:00
10:15 PM,26.6,12.2,55,29.77,10.0,West,23.0,39.1,N/A,,Mostly Cloudy,270,2013-01-20 04:15:00
10:35 PM,26.6,12.2,55,29.79,10.0,WNW,35.7,43.7,N/A,,Overcast,300,2013-01-20 04:35:00
10:55 PM,23.0,6.8,50,29.83,10.0,WNW,33.4,46.0,N/A,,Mostly Cloudy,290,2013-01-20 04:55:00
11:15 PM,21.2,6.8,54,29.84,10.0,WNW,28.8,39.1,N/A,,Mostly Cloudy,300,2013-01-20 05:15:00
11:35 PM,21.2,8.6,58,29.86,10.0,WNW,26.5,39.1,N/A,,Mostly Cloudy,300,2013-01-20 05:35:00
11:55 PM,17.6,3.2,53,29.88,10.0,WNW,26.5,38.0,N/A,,Scattered Clouds,300,2013-01-20 05:55:00